sensor_id;sensor_type;location;lat;lon;timestamp;temperature;humidity
16313;DHT22;8265;52.622;13.296;2022-11-02T00:01:20;8.00;99.90
16313;DHT22;8265;52.622;13.296;2022-11-02T00:06:28;7.90;99.90
16313;DHT22;8265;52.622;13.296;2022-11-02T00:11:49;7.90;99.90
16313;DHT22;8265;52.622;13.296;2022-11-02T00:17:10;7.90;99.90
16313;DHT22;8265;52.622;13.296;2022-11-02T00:22:31;7.80;99.90
16313;DHT22;8265;52.622;13.296;2022-11-02T00:34:57;7.70;99.90
16313;DHT22;8265;52.622;13.296;2022-11-02T00:40:19;7.60;99.90
16313;DHT22;8265;52.622;13.296;2022-11-02T00:45:39;7.60;99.90
16313;DHT22;8265;52.622;13.296;2022-11-02T00:51:00;7.70;99.90
16313;DHT22;8265;52.622;13.296;2022-11-02T00:56:21;7.80;99.90
16313;DHT22;8265;52.622;13.296;2022-11-02T01:01:42;7.80;99.90
16313;DHT22;8265;52.622;13.296;2022-11-02T01:07:03;7.70;99.90
16313;DHT22;8265;52.622;13.296;2022-11-02T01:12:24;7.60;99.90
16313;DHT22;8265;52.622;13.296;2022-11-02T01:17:45;7.70;99.90
16313;DHT22;8265;52.622;13.296;2022-11-02T01:23:06;7.80;99.90
16313;DHT22;8265;52.622;13.296;2022-11-02T01:28:27;8.00;99.90
16313;DHT22;8265;52.622;13.296;2022-11-02T01:33:48;8.20;99.90
16313;DHT22;8265;52.622;13.296;2022-11-02T01:39:09;8.20;99.90
16313;DHT22;8265;52.622;13.296;2022-11-02T01:44:31;8.10;99.90
16313;DHT22;8265;52.622;13.296;2022-11-02T01:49:52;8.10;99.90
16313;DHT22;8265;52.622;13.296;2022-11-02T01:55:13;8.10;99.90
16313;DHT22;8265;52.622;13.296;2022-11-02T02:00:33;7.80;99.90
16313;DHT22;8265;52.622;13.296;2022-11-02T02:05:55;7.70;99.90
16313;DHT22;8265;52.622;13.296;2022-11-02T02:11:28;7.60;99.90
16313;DHT22;8265;52.622;13.296;2022-11-02T02:22:05;7.50;99.90
16313;DHT22;8265;52.622;13.296;2022-11-02T02:27:20;7.50;99.90
16313;DHT22;8265;52.622;13.296;2022-11-02T02:32:42;7.20;99.90
16313;DHT22;8265;52.622;13.296;2022-11-02T02:38:00;7.10;99.90
16313;DHT22;8265;52.622;13.296;2022-11-02T02:43:24;7.10;99.90
16313;DHT22;8265;52.622;13.296;2022-11-02T02:48:42;7.00;99.90
16313;DHT22;8265;52.622;13.296;2022-11-02T02:54:03;7.00;99.90
16313;DHT22;8265;52.622;13.296;2022-11-02T02:59:25;7.10;99.90
16313;DHT22;8265;52.622;13.296;2022-11-02T03:04:44;7.10;99.90
16313;DHT22;8265;52.622;13.296;2022-11-02T03:10:10;7.10;99.90
16313;DHT22;8265;52.622;13.296;2022-11-02T03:15:29;7.40;99.90
16313;DHT22;8265;52.622;13.296;2022-11-02T03:20:55;7.50;99.90
16313;DHT22;8265;52.622;13.296;2022-11-02T03:26:10;7.60;99.90
16313;DHT22;8265;52.622;13.296;2022-11-02T03:31:34;7.60;99.90
16313;DHT22;8265;52.622;13.296;2022-11-02T03:36:53;7.50;99.90
16313;DHT22;8265;52.622;13.296;2022-11-02T03:42:12;7.20;99.90
16313;DHT22;8265;52.622;13.296;2022-11-02T03:47:32;7.10;99.90
16313;DHT22;8265;52.622;13.296;2022-11-02T03:52:55;7.10;99.90
16313;DHT22;8265;52.622;13.296;2022-11-02T03:58:14;7.00;99.90
16313;DHT22;8265;52.622;13.296;2022-11-02T04:03:35;6.90;99.90
16313;DHT22;8265;52.622;13.296;2022-11-02T04:08:56;6.90;99.90
16313;DHT22;8265;52.622;13.296;2022-11-02T04:14:17;6.80;99.90
16313;DHT22;8265;52.622;13.296;2022-11-02T04:19:38;6.90;99.90
16313;DHT22;8265;52.622;13.296;2022-11-02T04:24:59;6.90;99.90
16313;DHT22;8265;52.622;13.296;2022-11-02T04:30:20;6.90;99.90
16313;DHT22;8265;52.622;13.296;2022-11-02T04:35:41;7.00;99.90
16313;DHT22;8265;52.622;13.296;2022-11-02T04:41:02;7.20;99.90
16313;DHT22;8265;52.622;13.296;2022-11-02T04:46:23;7.00;99.90
16313;DHT22;8265;52.622;13.296;2022-11-02T04:51:44;7.00;99.90
16313;DHT22;8265;52.622;13.296;2022-11-02T04:57:05;6.90;99.90
16313;DHT22;8265;52.622;13.296;2022-11-02T05:02:25;7.00;99.90
16313;DHT22;8265;52.622;13.296;2022-11-02T05:07:46;7.00;99.90
16313;DHT22;8265;52.622;13.296;2022-11-02T05:13:08;7.10;99.90
16313;DHT22;8265;52.622;13.296;2022-11-02T05:18:29;7.10;99.90
16313;DHT22;8265;52.622;13.296;2022-11-02T05:23:49;7.40;99.90
16313;DHT22;8265;52.622;13.296;2022-11-02T05:29:10;7.40;99.90
16313;DHT22;8265;52.622;13.296;2022-11-02T05:34:31;7.50;99.90
16313;DHT22;8265;52.622;13.296;2022-11-02T05:39:52;7.60;99.90
16313;DHT22;8265;52.622;13.296;2022-11-02T05:45:13;7.70;99.90
16313;DHT22;8265;52.622;13.296;2022-11-02T05:50:34;7.80;99.90
16313;DHT22;8265;52.622;13.296;2022-11-02T05:55:58;8.00;99.90
16313;DHT22;8265;52.622;13.296;2022-11-02T06:01:16;8.00;99.90
16313;DHT22;8265;52.622;13.296;2022-11-02T06:06:37;8.00;99.90
16313;DHT22;8265;52.622;13.296;2022-11-02T06:11:58;8.00;99.90
16313;DHT22;8265;52.622;13.296;2022-11-02T06:17:19;7.80;99.90
16313;DHT22;8265;52.622;13.296;2022-11-02T06:22:40;7.70;99.90
16313;DHT22;8265;52.622;13.296;2022-11-02T06:28:01;7.70;99.90
16313;DHT22;8265;52.622;13.296;2022-11-02T06:33:22;7.60;99.90
16313;DHT22;8265;52.622;13.296;2022-11-02T06:38:43;7.70;99.90
16313;DHT22;8265;52.622;13.296;2022-11-02T06:44:04;7.60;99.90
16313;DHT22;8265;52.622;13.296;2022-11-02T06:49:25;7.70;99.90
16313;DHT22;8265;52.622;13.296;2022-11-02T06:54:46;7.80;99.90
16313;DHT22;8265;52.622;13.296;2022-11-02T07:00:09;7.90;99.90
16313;DHT22;8265;52.622;13.296;2022-11-02T07:05:28;7.90;99.90
16313;DHT22;8265;52.622;13.296;2022-11-02T07:10:49;8.00;99.90
16313;DHT22;8265;52.622;13.296;2022-11-02T07:16:10;8.20;99.90
16313;DHT22;8265;52.622;13.296;2022-11-02T07:21:30;8.40;99.90
16313;DHT22;8265;52.622;13.296;2022-11-02T07:26:51;8.60;99.90
16313;DHT22;8265;52.622;13.296;2022-11-02T07:32:12;8.90;99.90
16313;DHT22;8265;52.622;13.296;2022-11-02T07:37:33;9.30;99.90
16313;DHT22;8265;52.622;13.296;2022-11-02T07:42:54;9.70;99.90
16313;DHT22;8265;52.622;13.296;2022-11-02T07:48:15;10.20;99.90
16313;DHT22;8265;52.622;13.296;2022-11-02T07:53:36;10.50;99.90
16313;DHT22;8265;52.622;13.296;2022-11-02T07:58:57;10.70;99.90
16313;DHT22;8265;52.622;13.296;2022-11-02T08:04:18;10.90;99.90
16313;DHT22;8265;52.622;13.296;2022-11-02T08:09:39;10.90;99.90
16313;DHT22;8265;52.622;13.296;2022-11-02T08:15:00;10.90;99.90
16313;DHT22;8265;52.622;13.296;2022-11-02T08:20:21;11.00;99.90
16313;DHT22;8265;52.622;13.296;2022-11-02T08:25:42;11.10;99.90
16313;DHT22;8265;52.622;13.296;2022-11-02T08:31:03;11.30;99.90
16313;DHT22;8265;52.622;13.296;2022-11-02T08:36:24;11.20;99.90
16313;DHT22;8265;52.622;13.296;2022-11-02T08:41:45;11.10;99.90
16313;DHT22;8265;52.622;13.296;2022-11-02T08:47:06;11.20;99.90
16313;DHT22;8265;52.622;13.296;2022-11-02T08:52:27;11.20;99.90
16313;DHT22;8265;52.622;13.296;2022-11-02T08:57:49;11.30;99.90
16313;DHT22;8265;52.622;13.296;2022-11-02T09:03:09;11.60;99.90
16313;DHT22;8265;52.622;13.296;2022-11-02T09:08:30;11.70;99.90
16313;DHT22;8265;52.622;13.296;2022-11-02T09:13:51;11.90;99.90
16313;DHT22;8265;52.622;13.296;2022-11-02T09:19:12;12.20;99.90
16313;DHT22;8265;52.622;13.296;2022-11-02T09:24:33;12.50;99.90
16313;DHT22;8265;52.622;13.296;2022-11-02T09:29:54;12.70;99.90
16313;DHT22;8265;52.622;13.296;2022-11-02T09:35:15;12.90;99.90
16313;DHT22;8265;52.622;13.296;2022-11-02T09:40:37;13.10;99.90
16313;DHT22;8265;52.622;13.296;2022-11-02T09:45:58;13.30;99.90
16313;DHT22;8265;52.622;13.296;2022-11-02T09:51:19;13.50;99.90
16313;DHT22;8265;52.622;13.296;2022-11-02T09:56:39;13.60;99.90
16313;DHT22;8265;52.622;13.296;2022-11-02T10:02:01;13.80;99.90
16313;DHT22;8265;52.622;13.296;2022-11-02T10:07:25;14.00;99.90
16313;DHT22;8265;52.622;13.296;2022-11-02T10:12:44;14.10;99.90
16313;DHT22;8265;52.622;13.296;2022-11-02T10:18:03;14.20;99.90
16313;DHT22;8265;52.622;13.296;2022-11-02T10:23:25;14.30;99.90
16313;DHT22;8265;52.622;13.296;2022-11-02T10:28:46;14.30;99.90
16313;DHT22;8265;52.622;13.296;2022-11-02T10:34:15;14.30;99.90
16313;DHT22;8265;52.622;13.296;2022-11-02T10:39:29;14.40;99.90
16313;DHT22;8265;52.622;13.296;2022-11-02T10:44:57;14.60;99.90
16313;DHT22;8265;52.622;13.296;2022-11-02T10:50:25;14.60;99.90
16313;DHT22;8265;52.622;13.296;2022-11-02T10:55:30;14.70;99.90
16313;DHT22;8265;52.622;13.296;2022-11-02T11:00:50;14.80;99.90
16313;DHT22;8265;52.622;13.296;2022-11-02T11:06:11;14.90;99.90
16313;DHT22;8265;52.622;13.296;2022-11-02T11:11:33;14.90;99.90
16313;DHT22;8265;52.622;13.296;2022-11-02T11:16:53;15.00;99.90
16313;DHT22;8265;52.622;13.296;2022-11-02T11:22:26;15.00;99.90
16313;DHT22;8265;52.622;13.296;2022-11-02T11:27:38;15.10;99.90
16313;DHT22;8265;52.622;13.296;2022-11-02T11:32:56;15.40;99.90
16313;DHT22;8265;52.622;13.296;2022-11-02T11:38:18;15.20;99.90
16313;DHT22;8265;52.622;13.296;2022-11-02T11:43:38;15.10;99.90
16313;DHT22;8265;52.622;13.296;2022-11-02T11:48:59;15.00;99.90
16313;DHT22;8265;52.622;13.296;2022-11-02T11:54:24;15.10;99.90
16313;DHT22;8265;52.622;13.296;2022-11-02T11:59:47;15.20;99.90
16313;DHT22;8265;52.622;13.296;2022-11-02T12:05:11;15.30;99.90
16313;DHT22;8265;52.622;13.296;2022-11-02T12:10:26;15.20;99.90
16313;DHT22;8265;52.622;13.296;2022-11-02T12:15:52;15.10;99.90
16313;DHT22;8265;52.622;13.296;2022-11-02T12:21:09;15.40;99.90
16313;DHT22;8265;52.622;13.296;2022-11-02T12:26:30;15.50;99.90
16313;DHT22;8265;52.622;13.296;2022-11-02T12:31:49;15.40;99.90
16313;DHT22;8265;52.622;13.296;2022-11-02T12:37:11;15.40;99.90
16313;DHT22;8265;52.622;13.296;2022-11-02T12:42:29;15.30;99.90
16313;DHT22;8265;52.622;13.296;2022-11-02T12:47:54;15.20;99.90
16313;DHT22;8265;52.622;13.296;2022-11-02T12:53:29;15.30;99.90
16313;DHT22;8265;52.622;13.296;2022-11-02T12:58:33;15.40;99.90
16313;DHT22;8265;52.622;13.296;2022-11-02T13:03:55;15.70;99.90
16313;DHT22;8265;52.622;13.296;2022-11-02T13:09:14;15.70;99.90
16313;DHT22;8265;52.622;13.296;2022-11-02T13:14:37;15.50;99.90
16313;DHT22;8265;52.622;13.296;2022-11-02T13:19:55;15.50;99.90
16313;DHT22;8265;52.622;13.296;2022-11-02T13:25:17;15.50;99.90
16313;DHT22;8265;52.622;13.296;2022-11-02T13:30:38;15.70;99.90
16313;DHT22;8265;52.622;13.296;2022-11-02T13:35:58;15.70;99.90
16313;DHT22;8265;52.622;13.296;2022-11-02T13:41:41;15.80;99.90
16313;DHT22;8265;52.622;13.296;2022-11-02T13:46:52;15.50;99.90
16313;DHT22;8265;52.622;13.296;2022-11-02T13:52:02;15.30;99.90
16313;DHT22;8265;52.622;13.296;2022-11-02T13:57:30;15.10;99.90
16313;DHT22;8265;52.622;13.296;2022-11-02T14:02:43;14.90;99.90
16313;DHT22;8265;52.622;13.296;2022-11-02T14:08:05;14.80;99.90
16313;DHT22;8265;52.622;13.296;2022-11-02T14:18:46;14.60;99.90
16313;DHT22;8265;52.622;13.296;2022-11-02T14:29:50;14.60;99.90
16313;DHT22;8265;52.622;13.296;2022-11-02T14:34:57;14.50;99.90
16313;DHT22;8265;52.622;13.296;2022-11-02T14:40:15;14.60;99.90
16313;DHT22;8265;52.622;13.296;2022-11-02T14:45:36;14.60;99.90
16313;DHT22;8265;52.622;13.296;2022-11-02T14:50:59;14.40;99.90
16313;DHT22;8265;52.622;13.296;2022-11-02T14:56:13;14.40;99.90
16313;DHT22;8265;52.622;13.296;2022-11-02T15:01:34;14.30;99.90
16313;DHT22;8265;52.622;13.296;2022-11-02T15:06:55;14.20;99.90
16313;DHT22;8265;52.622;13.296;2022-11-02T15:12:28;14.00;99.90
16313;DHT22;8265;52.622;13.296;2022-11-02T15:17:54;13.80;99.90
16313;DHT22;8265;52.622;13.296;2022-11-02T15:23:01;13.80;99.90
16313;DHT22;8265;52.622;13.296;2022-11-02T15:28:20;13.70;99.90
16313;DHT22;8265;52.622;13.296;2022-11-02T15:33:41;13.50;99.90
16313;DHT22;8265;52.622;13.296;2022-11-02T15:39:02;13.40;99.90
16313;DHT22;8265;52.622;13.296;2022-11-02T15:49:59;13.20;99.90
16313;DHT22;8265;52.622;13.296;2022-11-02T15:55:05;13.00;99.90
16313;DHT22;8265;52.622;13.296;2022-11-02T16:00:24;12.90;99.90
16313;DHT22;8265;52.622;13.296;2022-11-02T16:05:45;12.70;99.90
16313;DHT22;8265;52.622;13.296;2022-11-02T16:11:10;12.60;99.90
16313;DHT22;8265;52.622;13.296;2022-11-02T16:16:27;12.40;99.90
16313;DHT22;8265;52.622;13.296;2022-11-02T16:21:48;12.30;99.90
16313;DHT22;8265;52.622;13.296;2022-11-02T16:27:10;12.20;99.90
16313;DHT22;8265;52.622;13.296;2022-11-02T16:32:30;12.20;99.90
16313;DHT22;8265;52.622;13.296;2022-11-02T16:37:51;12.10;99.90
16313;DHT22;8265;52.622;13.296;2022-11-02T16:43:12;12.00;99.90
16313;DHT22;8265;52.622;13.296;2022-11-02T16:48:33;11.90;99.90
16313;DHT22;8265;52.622;13.296;2022-11-02T16:53:54;11.60;99.90
16313;DHT22;8265;52.622;13.296;2022-11-02T16:59:15;11.30;99.90
16313;DHT22;8265;52.622;13.296;2022-11-02T17:04:36;10.90;99.90
16313;DHT22;8265;52.622;13.296;2022-11-02T17:09:57;10.60;99.90
16313;DHT22;8265;52.622;13.296;2022-11-02T17:15:18;10.50;99.90
16313;DHT22;8265;52.622;13.296;2022-11-02T17:20:39;10.20;99.90
16313;DHT22;8265;52.622;13.296;2022-11-02T17:26:21;9.90;99.90
16313;DHT22;8265;52.622;13.296;2022-11-02T17:31:21;9.90;99.90
16313;DHT22;8265;52.622;13.296;2022-11-02T17:36:42;9.90;99.90
16313;DHT22;8265;52.622;13.296;2022-11-02T17:42:03;9.60;99.90
16313;DHT22;8265;52.622;13.296;2022-11-02T17:47:23;9.50;99.90
16313;DHT22;8265;52.622;13.296;2022-11-02T17:52:44;9.40;99.90
16313;DHT22;8265;52.622;13.296;2022-11-02T17:58:06;8.90;99.90
16313;DHT22;8265;52.622;13.296;2022-11-02T18:03:26;9.10;99.90
16313;DHT22;8265;52.622;13.296;2022-11-02T18:08:47;9.20;99.90
16313;DHT22;8265;52.622;13.296;2022-11-02T18:14:14;9.00;99.90
16313;DHT22;8265;52.622;13.296;2022-11-02T18:19:29;9.00;99.90
16313;DHT22;8265;52.622;13.296;2022-11-02T18:24:50;9.10;99.90
16313;DHT22;8265;52.622;13.296;2022-11-02T18:36:15;9.10;99.90
16313;DHT22;8265;52.622;13.296;2022-11-02T18:41:36;8.80;99.90
16313;DHT22;8265;52.622;13.296;2022-11-02T18:46:57;9.10;99.90
16313;DHT22;8265;52.622;13.296;2022-11-02T18:52:18;9.10;99.90
16313;DHT22;8265;52.622;13.296;2022-11-02T18:57:38;8.90;99.90
16313;DHT22;8265;52.622;13.296;2022-11-02T19:02:59;8.80;99.90
16313;DHT22;8265;52.622;13.296;2022-11-02T19:08:21;8.50;99.90
16313;DHT22;8265;52.622;13.296;2022-11-02T19:13:46;8.40;99.90
16313;DHT22;8265;52.622;13.296;2022-11-02T19:19:02;8.60;99.90
16313;DHT22;8265;52.622;13.296;2022-11-02T19:24:23;8.20;99.90
16313;DHT22;8265;52.622;13.296;2022-11-02T19:29:44;7.80;99.90
16313;DHT22;8265;52.622;13.296;2022-11-02T19:35:06;7.60;99.90
16313;DHT22;8265;52.622;13.296;2022-11-02T19:40:26;7.40;99.90
16313;DHT22;8265;52.622;13.296;2022-11-02T19:45:47;7.30;99.90
16313;DHT22;8265;52.622;13.296;2022-11-02T19:51:09;7.10;99.90
16313;DHT22;8265;52.622;13.296;2022-11-02T19:56:30;7.00;99.90
16313;DHT22;8265;52.622;13.296;2022-11-02T20:01:50;7.00;99.90
16313;DHT22;8265;52.622;13.296;2022-11-02T20:07:11;7.00;99.90
16313;DHT22;8265;52.622;13.296;2022-11-02T20:12:33;7.20;99.90
16313;DHT22;8265;52.622;13.296;2022-11-02T20:17:53;7.10;99.90
16313;DHT22;8265;52.622;13.296;2022-11-02T20:23:14;6.60;99.90
16313;DHT22;8265;52.622;13.296;2022-11-02T20:28:37;6.60;99.90
16313;DHT22;8265;52.622;13.296;2022-11-02T20:33:56;6.40;99.90
16313;DHT22;8265;52.622;13.296;2022-11-02T20:39:17;6.30;99.90
16313;DHT22;8265;52.622;13.296;2022-11-02T20:44:38;6.20;99.90
16313;DHT22;8265;52.622;13.296;2022-11-02T20:49:59;6.20;99.90
16313;DHT22;8265;52.622;13.296;2022-11-02T20:55:20;6.20;99.90
16313;DHT22;8265;52.622;13.296;2022-11-02T21:00:41;6.20;99.90
16313;DHT22;8265;52.622;13.296;2022-11-02T21:06:03;6.00;99.90
16313;DHT22;8265;52.622;13.296;2022-11-02T21:11:23;6.00;99.90
16313;DHT22;8265;52.622;13.296;2022-11-02T21:16:44;5.90;99.90
16313;DHT22;8265;52.622;13.296;2022-11-02T21:22:05;5.90;99.90
16313;DHT22;8265;52.622;13.296;2022-11-02T21:27:26;5.80;99.90
16313;DHT22;8265;52.622;13.296;2022-11-02T21:32:49;5.70;99.90
16313;DHT22;8265;52.622;13.296;2022-11-02T21:38:08;5.70;99.90
16313;DHT22;8265;52.622;13.296;2022-11-02T21:43:29;5.60;99.90
16313;DHT22;8265;52.622;13.296;2022-11-02T21:48:50;5.50;99.90
16313;DHT22;8265;52.622;13.296;2022-11-02T21:54:11;5.40;99.90
16313;DHT22;8265;52.622;13.296;2022-11-02T21:59:32;5.40;99.90
16313;DHT22;8265;52.622;13.296;2022-11-02T22:04:53;5.40;99.90
16313;DHT22;8265;52.622;13.296;2022-11-02T22:10:14;5.40;99.90
16313;DHT22;8265;52.622;13.296;2022-11-02T22:15:35;5.30;99.90
16313;DHT22;8265;52.622;13.296;2022-11-02T22:20:56;5.40;99.90
16313;DHT22;8265;52.622;13.296;2022-11-02T22:26:17;5.50;99.90
16313;DHT22;8265;52.622;13.296;2022-11-02T22:31:38;5.70;99.90
16313;DHT22;8265;52.622;13.296;2022-11-02T22:36:59;5.70;99.90
16313;DHT22;8265;52.622;13.296;2022-11-02T22:42:19;5.90;99.90
16313;DHT22;8265;52.622;13.296;2022-11-02T22:47:40;5.70;99.90
16313;DHT22;8265;52.622;13.296;2022-11-02T22:53:01;5.50;99.90
16313;DHT22;8265;52.622;13.296;2022-11-02T22:58:22;5.50;99.90
16313;DHT22;8265;52.622;13.296;2022-11-02T23:03:44;5.50;99.90
16313;DHT22;8265;52.622;13.296;2022-11-02T23:09:05;5.40;99.90
16313;DHT22;8265;52.622;13.296;2022-11-02T23:14:25;5.60;99.90
16313;DHT22;8265;52.622;13.296;2022-11-02T23:19:46;5.50;99.90
16313;DHT22;8265;52.622;13.296;2022-11-02T23:25:09;5.30;99.90
16313;DHT22;8265;52.622;13.296;2022-11-02T23:30:29;5.20;99.90
16313;DHT22;8265;52.622;13.296;2022-11-02T23:35:49;5.20;99.90
16313;DHT22;8265;52.622;13.296;2022-11-02T23:41:10;5.10;99.90
16313;DHT22;8265;52.622;13.296;2022-11-02T23:46:31;5.00;99.90
16313;DHT22;8265;52.622;13.296;2022-11-02T23:51:52;4.90;99.90
16313;DHT22;8265;52.622;13.296;2022-11-02T23:57:13;4.90;99.90
